LEBA/ODB METAR and TAF weather

Enter ICAO airport designator
Station Type Date Time Source
LEBA METAR 2021/03/01 10:00 UTC NOAA

LEBA 011000Z 08006KT 050V140 CAVOK 16/10 Q1018


Station Type Date Time Source
LEBA Decoded METAR 2021/03/01 10:00 UTC NOAA

Cordoba / Aeropuerto, Spain (LEBA) 37-51N 004-51W 92M
Mar 01, 2021 - 05:00 AM EST / 2021.03.01 1000 UTC
Wind: from the E (080 degrees) at 7 MPH (6 KT) (direction variable):0
Visibility: greater than 7 mile(s):0
Temperature: 60 F (16 C)
Dew Point: 50 F (10 C)
Relative Humidity: 67%
Pressure (altimeter): 30.06 in. Hg (1018 hPa)
ob: LEBA 011000Z 08006KT 050V140 CAVOK 16/10 Q1018
cycle: 10

Station Type Date Time Source
LEBA TAF 2021/03/01 09:27 UTC NOAA

TAF TAF LEBA 010800Z 0109/0209 08005KT 9999 FEW040 TX19/0115Z TN07/0207Z PROB30
TEMPO 0115/0119 4000 SHRA FEW040CB

Example: see airport list